sensor_id;sensor_type;location;lat;lon;timestamp;pressure;altitude;pressure_sealevel;temperature;humidity
62436;BME280;48480;50.252;18.848;2023-03-22T00:01:26;98588.95;;;8.05;80.33
62436;BME280;48480;50.252;18.848;2023-03-22T00:03:56;98587.29;;;8.02;80.30
62436;BME280;48480;50.252;18.848;2023-03-22T00:06:23;98586.15;;;8.00;80.36
62436;BME280;48480;50.252;18.848;2023-03-22T00:08:50;98581.27;;;7.93;80.43
62436;BME280;48480;50.252;18.848;2023-03-22T00:11:18;98592.51;;;7.97;80.28
62436;BME280;48480;50.252;18.848;2023-03-22T00:13:45;98585.82;;;7.98;80.31
62436;BME280;48480;50.252;18.848;2023-03-22T00:16:12;98576.41;;;7.97;80.30
62436;BME280;48480;50.252;18.848;2023-03-22T00:18:38;98575.52;;;7.97;80.50
62436;BME280;48480;50.252;18.848;2023-03-22T00:21:03;98575.20;;;7.94;80.59
62436;BME280;48480;50.252;18.848;2023-03-22T00:23:29;98573.86;;;7.91;80.72
62436;BME280;48480;50.252;18.848;2023-03-22T00:25:55;98558.85;;;7.85;80.73
62436;BME280;48480;50.252;18.848;2023-03-22T00:28:21;98561.34;;;7.89;80.77
62436;BME280;48480;50.252;18.848;2023-03-22T00:30:51;98556.05;;;7.83;81.00
62436;BME280;48480;50.252;18.848;2023-03-22T00:33:17;98554.61;;;7.79;81.32
62436;BME280;48480;50.252;18.848;2023-03-22T00:35:50;98551.58;;;7.75;81.46
62436;BME280;48480;50.252;18.848;2023-03-22T00:38:16;98548.45;;;7.70;81.59
62436;BME280;48480;50.252;18.848;2023-03-22T00:40:42;98540.84;;;7.61;81.75
62436;BME280;48480;50.252;18.848;2023-03-22T00:43:07;98550.42;;;7.63;81.93
62436;BME280;48480;50.252;18.848;2023-03-22T00:45:33;98549.33;;;7.61;81.93
62436;BME280;48480;50.252;18.848;2023-03-22T00:48:01;98549.05;;;7.62;82.06
62436;BME280;48480;50.252;18.848;2023-03-22T00:50:27;98549.92;;;7.61;82.15
62436;BME280;48480;50.252;18.848;2023-03-22T00:52:52;98557.77;;;7.61;82.12
62436;BME280;48480;50.252;18.848;2023-03-22T00:55:17;98559.77;;;7.60;82.06
62436;BME280;48480;50.252;18.848;2023-03-22T00:57:43;98560.05;;;7.58;82.07
62436;BME280;48480;50.252;18.848;2023-03-22T01:00:09;98557.29;;;7.54;82.17
62436;BME280;48480;50.252;18.848;2023-03-22T01:02:38;98551.73;;;7.51;82.09
62436;BME280;48480;50.252;18.848;2023-03-22T01:05:05;98551.06;;;7.47;82.04
62436;BME280;48480;50.252;18.848;2023-03-22T01:07:31;98546.13;;;7.42;81.95
62436;BME280;48480;50.252;18.848;2023-03-22T01:09:57;98538.23;;;7.38;81.96
62436;BME280;48480;50.252;18.848;2023-03-22T01:12:22;98541.06;;;7.35;81.95
62436;BME280;48480;50.252;18.848;2023-03-22T01:14:48;98538.89;;;7.30;81.78
62436;BME280;48480;50.252;18.848;2023-03-22T01:17:13;98530.19;;;7.23;81.58
62436;BME280;48480;50.252;18.848;2023-03-22T01:19:39;98522.48;;;7.18;81.65
62436;BME280;48480;50.252;18.848;2023-03-22T01:22:06;98521.71;;;7.12;81.71
62436;BME280;48480;50.252;18.848;2023-03-22T01:24:32;98514.22;;;7.04;81.69
62436;BME280;48480;50.252;18.848;2023-03-22T01:26:58;98518.98;;;6.99;81.86
62436;BME280;48480;50.252;18.848;2023-03-22T01:29:24;98519.11;;;6.94;81.81
62436;BME280;48480;50.252;18.848;2023-03-22T01:31:51;98510.47;;;6.84;81.51
62436;BME280;48480;50.252;18.848;2023-03-22T01:34:17;98520.60;;;6.84;81.29
62436;BME280;48480;50.252;18.848;2023-03-22T01:36:42;98520.40;;;6.79;81.12
62436;BME280;48480;50.252;18.848;2023-03-22T01:39:09;98517.61;;;6.72;80.99
62436;BME280;48480;50.252;18.848;2023-03-22T01:41:35;98518.56;;;6.65;80.84
62436;BME280;48480;50.252;18.848;2023-03-22T01:44:21;98514.95;;;6.59;81.06
62436;BME280;48480;50.252;18.848;2023-03-22T01:46:48;98512.91;;;6.58;81.32
62436;BME280;48480;50.252;18.848;2023-03-22T01:51:46;98501.23;;;6.50;81.52
62436;BME280;48480;50.252;18.848;2023-03-22T01:54:29;98501.58;;;6.48;81.67
62436;BME280;48480;50.252;18.848;2023-03-22T01:56:57;98500.33;;;6.42;81.63
62436;BME280;48480;50.252;18.848;2023-03-22T01:59:23;98494.63;;;6.37;82.05
62436;BME280;48480;50.252;18.848;2023-03-22T02:01:49;98491.99;;;6.35;82.37
62436;BME280;48480;50.252;18.848;2023-03-22T02:04:18;98485.09;;;6.33;82.32
62436;BME280;48480;50.252;18.848;2023-03-22T02:06:53;98480.29;;;6.30;82.46
62436;BME280;48480;50.252;18.848;2023-03-22T02:09:20;98477.62;;;6.30;82.66
62436;BME280;48480;50.252;18.848;2023-03-22T02:12:39;98479.11;;;6.30;82.67
62436;BME280;48480;50.252;18.848;2023-03-22T02:17:18;98476.35;;;6.24;82.09
62436;BME280;48480;50.252;18.848;2023-03-22T02:20:17;98474.83;;;6.23;81.97
62436;BME280;48480;50.252;18.848;2023-03-22T02:29:04;98471.73;;;6.09;81.89
62436;BME280;48480;50.252;18.848;2023-03-22T02:39:44;98456.68;;;5.99;81.82
62436;BME280;48480;50.252;18.848;2023-03-22T02:42:26;98455.27;;;5.98;82.29
62436;BME280;48480;50.252;18.848;2023-03-22T02:47:54;98439.37;;;6.00;83.91
62436;BME280;48480;50.252;18.848;2023-03-22T02:52:52;98437.55;;;6.05;84.04
62436;BME280;48480;50.252;18.848;2023-03-22T02:55:28;98436.86;;;6.01;83.93
62436;BME280;48480;50.252;18.848;2023-03-22T03:00:27;98422.77;;;5.99;84.01
62436;BME280;48480;50.252;18.848;2023-03-22T03:02:59;98429.41;;;6.00;84.06
62436;BME280;48480;50.252;18.848;2023-03-22T03:05:27;98432.95;;;6.02;84.04
62436;BME280;48480;50.252;18.848;2023-03-22T03:07:58;98438.25;;;6.04;84.27
62436;BME280;48480;50.252;18.848;2023-03-22T03:10:25;98440.77;;;6.07;84.25
62436;BME280;48480;50.252;18.848;2023-03-22T03:12:52;98445.13;;;6.08;84.13
62436;BME280;48480;50.252;18.848;2023-03-22T03:15:19;98451.22;;;6.11;84.19
62436;BME280;48480;50.252;18.848;2023-03-22T03:20:42;98452.14;;;6.13;84.08
62436;BME280;48480;50.252;18.848;2023-03-22T03:33:33;98461.81;;;6.23;84.65
62436;BME280;48480;50.252;18.848;2023-03-22T03:36:08;98463.06;;;6.21;84.85
62436;BME280;48480;50.252;18.848;2023-03-22T03:38:38;98461.02;;;6.24;84.96
62436;BME280;48480;50.252;18.848;2023-03-22T03:41:10;98459.69;;;6.27;85.03
62436;BME280;48480;50.252;18.848;2023-03-22T03:43:38;98455.30;;;6.29;85.29
62436;BME280;48480;50.252;18.848;2023-03-22T03:46:05;98455.58;;;6.32;85.31
62436;BME280;48480;50.252;18.848;2023-03-22T03:48:33;98455.72;;;6.33;85.32
62436;BME280;48480;50.252;18.848;2023-03-22T03:51:00;98459.29;;;6.34;85.54
62436;BME280;48480;50.252;18.848;2023-03-22T03:53:27;98460.33;;;6.35;85.61
62436;BME280;48480;50.252;18.848;2023-03-22T03:55:53;98461.13;;;6.36;85.63
62436;BME280;48480;50.252;18.848;2023-03-22T03:58:18;98472.67;;;6.37;85.58
62436;BME280;48480;50.252;18.848;2023-03-22T04:00:44;98476.62;;;6.38;85.74
62436;BME280;48480;50.252;18.848;2023-03-22T04:03:10;98475.14;;;6.40;85.65
62436;BME280;48480;50.252;18.848;2023-03-22T04:05:36;98470.77;;;6.39;85.69
62436;BME280;48480;50.252;18.848;2023-03-22T04:08:02;98470.96;;;6.37;85.66
62436;BME280;48480;50.252;18.848;2023-03-22T04:10:27;98468.37;;;6.36;85.65
62436;BME280;48480;50.252;18.848;2023-03-22T04:12:53;98467.27;;;6.35;85.59
62436;BME280;48480;50.252;18.848;2023-03-22T04:15:18;98468.88;;;6.34;85.69
62436;BME280;48480;50.252;18.848;2023-03-22T04:17:43;98461.19;;;6.32;85.68
62436;BME280;48480;50.252;18.848;2023-03-22T04:20:11;98460.67;;;6.30;85.76
62436;BME280;48480;50.252;18.848;2023-03-22T04:22:38;98457.83;;;6.28;85.73
62436;BME280;48480;50.252;18.848;2023-03-22T04:25:05;98455.94;;;6.26;85.72
62436;BME280;48480;50.252;18.848;2023-03-22T04:27:40;98459.95;;;6.24;85.70
62436;BME280;48480;50.252;18.848;2023-03-22T04:30:08;98464.15;;;6.20;85.52
62436;BME280;48480;50.252;18.848;2023-03-22T04:32:44;98459.81;;;6.18;85.59
62436;BME280;48480;50.252;18.848;2023-03-22T04:35:10;98460.73;;;6.18;85.60
62436;BME280;48480;50.252;18.848;2023-03-22T04:37:35;98453.58;;;6.18;85.58
62436;BME280;48480;50.252;18.848;2023-03-22T04:40:00;98454.06;;;6.19;85.32
62436;BME280;48480;50.252;18.848;2023-03-22T04:42:26;98454.23;;;6.20;85.06
62436;BME280;48480;50.252;18.848;2023-03-22T04:44:51;98450.05;;;6.20;84.93
62436;BME280;48480;50.252;18.848;2023-03-22T04:47:17;98452.50;;;6.19;84.84
62436;BME280;48480;50.252;18.848;2023-03-22T04:49:43;98458.66;;;6.16;84.49
62436;BME280;48480;50.252;18.848;2023-03-22T04:52:09;98456.39;;;6.14;84.52
62436;BME280;48480;50.252;18.848;2023-03-22T04:54:36;98456.54;;;6.15;84.61
62436;BME280;48480;50.252;18.848;2023-03-22T04:57:03;98453.84;;;6.14;84.33
62436;BME280;48480;50.252;18.848;2023-03-22T04:59:28;98452.55;;;6.11;84.39
62436;BME280;48480;50.252;18.848;2023-03-22T05:01:54;98452.11;;;6.12;84.40
62436;BME280;48480;50.252;18.848;2023-03-22T05:04:20;98453.73;;;6.14;84.28
62436;BME280;48480;50.252;18.848;2023-03-22T05:06:47;98448.32;;;6.16;84.23
62436;BME280;48480;50.252;18.848;2023-03-22T05:09:13;98452.34;;;6.19;84.18
62436;BME280;48480;50.252;18.848;2023-03-22T05:11:39;98453.54;;;6.21;84.03
62436;BME280;48480;50.252;18.848;2023-03-22T05:14:06;98458.63;;;6.23;84.05
62436;BME280;48480;50.252;18.848;2023-03-22T05:16:32;98456.27;;;6.29;83.94
62436;BME280;48480;50.252;18.848;2023-03-22T05:18:58;98456.52;;;6.33;83.79
62436;BME280;48480;50.252;18.848;2023-03-22T05:21:28;98460.13;;;6.38;83.72
62436;BME280;48480;50.252;18.848;2023-03-22T05:24:01;98463.38;;;6.47;83.65
62436;BME280;48480;50.252;18.848;2023-03-22T05:26:26;98461.70;;;6.53;83.50
62436;BME280;48480;50.252;18.848;2023-03-22T05:28:53;98466.83;;;6.56;83.32
62436;BME280;48480;50.252;18.848;2023-03-22T05:31:19;98465.83;;;6.59;83.34
62436;BME280;48480;50.252;18.848;2023-03-22T05:33:49;98470.55;;;6.63;83.15
62436;BME280;48480;50.252;18.848;2023-03-22T05:36:15;98472.98;;;6.65;83.08
62436;BME280;48480;50.252;18.848;2023-03-22T05:38:41;98479.38;;;6.70;83.04
62436;BME280;48480;50.252;18.848;2023-03-22T05:41:09;98477.28;;;6.70;82.92
62436;BME280;48480;50.252;18.848;2023-03-22T05:43:35;98475.95;;;6.71;82.81
62436;BME280;48480;50.252;18.848;2023-03-22T05:46:07;98478.30;;;6.71;82.72
62436;BME280;48480;50.252;18.848;2023-03-22T05:48:32;98477.52;;;6.73;82.77
62436;BME280;48480;50.252;18.848;2023-03-22T05:50:58;98474.05;;;6.76;82.82
62436;BME280;48480;50.252;18.848;2023-03-22T05:53:24;98476.73;;;6.81;82.79
62436;BME280;48480;50.252;18.848;2023-03-22T05:55:50;98475.94;;;6.86;82.64
62436;BME280;48480;50.252;18.848;2023-03-22T05:58:17;98473.42;;;6.89;82.68
62436;BME280;48480;50.252;18.848;2023-03-22T06:00:46;98477.52;;;6.91;82.50
62436;BME280;48480;50.252;18.848;2023-03-22T06:03:14;98473.89;;;6.91;82.29
62436;BME280;48480;50.252;18.848;2023-03-22T06:05:39;98461.41;;;6.84;82.32
62436;BME280;48480;50.252;18.848;2023-03-22T06:08:05;98472.44;;;6.91;82.30
62436;BME280;48480;50.252;18.848;2023-03-22T06:10:30;98475.71;;;6.90;82.29
62436;BME280;48480;50.252;18.848;2023-03-22T06:12:56;98476.55;;;6.91;82.40
62436;BME280;48480;50.252;18.848;2023-03-22T06:15:21;98479.10;;;6.94;82.50
62436;BME280;48480;50.252;18.848;2023-03-22T06:17:47;98478.31;;;7.00;82.42
62436;BME280;48480;50.252;18.848;2023-03-22T06:20:12;98475.00;;;7.05;82.18
62436;BME280;48480;50.252;18.848;2023-03-22T06:22:39;98477.57;;;7.07;82.06
62436;BME280;48480;50.252;18.848;2023-03-22T06:25:06;98472.94;;;7.04;81.83
62436;BME280;48480;50.252;18.848;2023-03-22T06:27:32;98473.34;;;7.01;82.10
62436;BME280;48480;50.252;18.848;2023-03-22T06:29:57;98470.64;;;7.04;82.29
62436;BME280;48480;50.252;18.848;2023-03-22T06:32:23;98466.89;;;7.08;82.33
62436;BME280;48480;50.252;18.848;2023-03-22T06:34:54;98468.80;;;7.12;82.17
62436;BME280;48480;50.252;18.848;2023-03-22T06:37:21;98469.52;;;7.17;82.38
62436;BME280;48480;50.252;18.848;2023-03-22T06:39:48;98471.30;;;7.23;82.20
62436;BME280;48480;50.252;18.848;2023-03-22T06:42:13;98474.05;;;7.30;82.26
62436;BME280;48480;50.252;18.848;2023-03-22T06:44:39;98474.48;;;7.37;82.05
62436;BME280;48480;50.252;18.848;2023-03-22T06:47:09;98474.92;;;7.42;81.94
62436;BME280;48480;50.252;18.848;2023-03-22T06:49:36;98476.23;;;7.49;81.81
62436;BME280;48480;50.252;18.848;2023-03-22T06:52:02;98475.77;;;7.54;81.52
62436;BME280;48480;50.252;18.848;2023-03-22T06:54:27;98477.80;;;7.56;81.34
62436;BME280;48480;50.252;18.848;2023-03-22T06:56:53;98474.34;;;7.60;81.28
62436;BME280;48480;50.252;18.848;2023-03-22T06:59:19;98477.09;;;7.64;81.30
62436;BME280;48480;50.252;18.848;2023-03-22T07:01:45;98483.11;;;7.71;81.36
62436;BME280;48480;50.252;18.848;2023-03-22T07:04:10;98484.23;;;7.76;81.03
62436;BME280;48480;50.252;18.848;2023-03-22T07:06:36;98481.41;;;7.84;81.03
62436;BME280;48480;50.252;18.848;2023-03-22T07:09:01;98481.92;;;7.94;80.94
62436;BME280;48480;50.252;18.848;2023-03-22T07:11:27;98482.75;;;8.06;81.01
62436;BME280;48480;50.252;18.848;2023-03-22T07:13:53;98480.48;;;8.21;80.67
62436;BME280;48480;50.252;18.848;2023-03-22T07:16:19;98482.79;;;8.36;80.23
62436;BME280;48480;50.252;18.848;2023-03-22T07:18:45;98483.52;;;8.51;79.91
62436;BME280;48480;50.252;18.848;2023-03-22T07:21:11;98485.54;;;8.64;79.61
62436;BME280;48480;50.252;18.848;2023-03-22T07:23:36;98488.33;;;8.78;79.21
62436;BME280;48480;50.252;18.848;2023-03-22T07:26:02;98487.34;;;8.93;78.83
62436;BME280;48480;50.252;18.848;2023-03-22T07:28:28;98488.05;;;9.08;78.33
62436;BME280;48480;50.252;18.848;2023-03-22T07:31:08;98488.48;;;9.26;77.95
62436;BME280;48480;50.252;18.848;2023-03-22T07:33:37;98482.98;;;9.49;77.41
62436;BME280;48480;50.252;18.848;2023-03-22T07:36:05;98480.70;;;9.75;76.73
62436;BME280;48480;50.252;18.848;2023-03-22T07:38:31;98475.84;;;10.08;76.40
62436;BME280;48480;50.252;18.848;2023-03-22T07:40:57;98472.79;;;10.39;75.09
62436;BME280;48480;50.252;18.848;2023-03-22T07:43:24;98476.36;;;10.71;73.99
62436;BME280;48480;50.252;18.848;2023-03-22T07:45:50;98474.88;;;11.04;73.19
62436;BME280;48480;50.252;18.848;2023-03-22T07:48:17;98475.21;;;11.32;72.40
62436;BME280;48480;50.252;18.848;2023-03-22T07:50:43;98474.48;;;11.51;71.88
62436;BME280;48480;50.252;18.848;2023-03-22T07:53:09;98471.62;;;11.63;70.77
62436;BME280;48480;50.252;18.848;2023-03-22T07:55:36;98470.21;;;11.71;70.17
62436;BME280;48480;50.252;18.848;2023-03-22T07:58:02;98471.14;;;11.73;69.26
62436;BME280;48480;50.252;18.848;2023-03-22T08:00:28;98469.21;;;11.73;69.22
62436;BME280;48480;50.252;18.848;2023-03-22T08:02:54;98465.05;;;11.72;69.34
62436;BME280;48480;50.252;18.848;2023-03-22T08:05:19;98466.48;;;11.75;69.17
62436;BME280;48480;50.252;18.848;2023-03-22T08:07:47;98463.77;;;11.84;68.91
62436;BME280;48480;50.252;18.848;2023-03-22T08:10:13;98466.89;;;11.97;68.76
62436;BME280;48480;50.252;18.848;2023-03-22T08:12:40;98467.59;;;12.09;68.51
62436;BME280;48480;50.252;18.848;2023-03-22T08:15:06;98463.20;;;12.18;67.93
62436;BME280;48480;50.252;18.848;2023-03-22T08:17:32;98461.42;;;12.30;67.27
62436;BME280;48480;50.252;18.848;2023-03-22T08:19:58;98466.70;;;12.42;66.67
62436;BME280;48480;50.252;18.848;2023-03-22T08:22:23;98468.04;;;12.51;66.23
62436;BME280;48480;50.252;18.848;2023-03-22T08:24:53;98469.79;;;12.57;65.95
62436;BME280;48480;50.252;18.848;2023-03-22T08:27:19;98464.79;;;12.63;66.06
62436;BME280;48480;50.252;18.848;2023-03-22T08:29:45;98461.00;;;12.64;65.68
62436;BME280;48480;50.252;18.848;2023-03-22T08:32:14;98457.77;;;12.69;65.54
62436;BME280;48480;50.252;18.848;2023-03-22T08:34:41;98457.61;;;12.73;65.37
62436;BME280;48480;50.252;18.848;2023-03-22T08:37:08;98457.64;;;12.76;65.02
62436;BME280;48480;50.252;18.848;2023-03-22T08:39:34;98455.34;;;12.82;65.12
62436;BME280;48480;50.252;18.848;2023-03-22T08:42:00;98448.67;;;12.89;64.88
62436;BME280;48480;50.252;18.848;2023-03-22T08:44:27;98447.66;;;12.93;63.91
62436;BME280;48480;50.252;18.848;2023-03-22T08:46:52;98449.06;;;12.94;63.57
62436;BME280;48480;50.252;18.848;2023-03-22T08:49:18;98446.84;;;12.98;63.56
62436;BME280;48480;50.252;18.848;2023-03-22T08:51:43;98447.42;;;13.00;63.54
62436;BME280;48480;50.252;18.848;2023-03-22T08:54:09;98445.39;;;13.01;63.56
62436;BME280;48480;50.252;18.848;2023-03-22T08:56:35;98445.64;;;13.02;62.71
62436;BME280;48480;50.252;18.848;2023-03-22T08:59:03;98451.69;;;13.01;62.60
62436;BME280;48480;50.252;18.848;2023-03-22T09:01:29;98447.53;;;13.03;62.13
62436;BME280;48480;50.252;18.848;2023-03-22T09:03:56;98448.49;;;13.08;62.17
62436;BME280;48480;50.252;18.848;2023-03-22T09:06:21;98447.98;;;13.16;61.91
62436;BME280;48480;50.252;18.848;2023-03-22T09:08:47;98449.80;;;13.24;61.59
62436;BME280;48480;50.252;18.848;2023-03-22T09:11:17;98446.78;;;13.32;61.69
62436;BME280;48480;50.252;18.848;2023-03-22T09:13:43;98441.66;;;13.47;61.17
62436;BME280;48480;50.252;18.848;2023-03-22T09:16:09;98438.48;;;13.58;60.92
62436;BME280;48480;50.252;18.848;2023-03-22T09:18:36;98435.98;;;13.81;60.61
62436;BME280;48480;50.252;18.848;2023-03-22T09:21:03;98439.23;;;14.06;59.93
62436;BME280;48480;50.252;18.848;2023-03-22T09:23:32;98438.84;;;14.29;59.34
62436;BME280;48480;50.252;18.848;2023-03-22T09:26:03;98433.94;;;14.44;59.01
62436;BME280;48480;50.252;18.848;2023-03-22T09:28:29;98439.54;;;14.61;59.25
62436;BME280;48480;50.252;18.848;2023-03-22T09:31:02;98441.44;;;14.79;58.67
62436;BME280;48480;50.252;18.848;2023-03-22T09:33:29;98440.35;;;14.87;58.17
62436;BME280;48480;50.252;18.848;2023-03-22T09:35:55;98438.80;;;14.90;57.86
62436;BME280;48480;50.252;18.848;2023-03-22T09:38:22;98433.35;;;14.93;57.55
62436;BME280;48480;50.252;18.848;2023-03-22T09:40:53;98426.29;;;15.01;57.92
62436;BME280;48480;50.252;18.848;2023-03-22T09:43:28;98424.95;;;15.11;57.55
62436;BME280;48480;50.252;18.848;2023-03-22T09:45:55;98423.70;;;15.13;57.24
62436;BME280;48480;50.252;18.848;2023-03-22T09:48:27;98423.33;;;15.26;57.18
62436;BME280;48480;50.252;18.848;2023-03-22T09:50:54;98423.36;;;15.46;56.66
62436;BME280;48480;50.252;18.848;2023-03-22T09:53:22;98420.92;;;15.50;56.95
62436;BME280;48480;50.252;18.848;2023-03-22T09:56:01;98415.20;;;15.59;56.68
62436;BME280;48480;50.252;18.848;2023-03-22T09:58:35;98410.83;;;15.67;56.47
62436;BME280;48480;50.252;18.848;2023-03-22T10:01:15;98409.52;;;15.80;56.55
62436;BME280;48480;50.252;18.848;2023-03-22T10:06:32;98406.44;;;16.18;55.54
62436;BME280;48480;50.252;18.848;2023-03-22T10:11:48;98398.87;;;16.40;54.77
62436;BME280;48480;50.252;18.848;2023-03-22T10:16:56;98395.23;;;16.79;52.97
62436;BME280;48480;50.252;18.848;2023-03-22T10:19:53;98394.30;;;16.75;52.66
62436;BME280;48480;50.252;18.848;2023-03-22T10:22:28;98399.50;;;16.60;52.69
62436;BME280;48480;50.252;18.848;2023-03-22T10:24:56;98397.27;;;16.46;52.25
62436;BME280;48480;50.252;18.848;2023-03-22T10:27:25;98393.92;;;16.34;52.47
62436;BME280;48480;50.252;18.848;2023-03-22T10:29:58;98394.89;;;16.20;52.37
62436;BME280;48480;50.252;18.848;2023-03-22T10:35:17;98386.86;;;15.93;53.27
62436;BME280;48480;50.252;18.848;2023-03-22T10:37:46;98389.70;;;15.85;53.52
62436;BME280;48480;50.252;18.848;2023-03-22T10:40:20;98385.51;;;15.81;54.09
62436;BME280;48480;50.252;18.848;2023-03-22T10:42:53;98389.94;;;15.75;53.66
62436;BME280;48480;50.252;18.848;2023-03-22T10:45:20;98389.90;;;15.68;53.72
62436;BME280;48480;50.252;18.848;2023-03-22T10:47:59;98388.61;;;15.65;53.99
62436;BME280;48480;50.252;18.848;2023-03-22T10:50:39;98386.00;;;15.66;53.88
62436;BME280;48480;50.252;18.848;2023-03-22T10:55:39;98388.63;;;15.75;53.53
62436;BME280;48480;50.252;18.848;2023-03-22T10:58:19;98392.13;;;15.79;53.57
62436;BME280;48480;50.252;18.848;2023-03-22T11:01:04;98385.78;;;15.96;53.54
62436;BME280;48480;50.252;18.848;2023-03-22T11:06:15;98382.61;;;16.33;52.81
62436;BME280;48480;50.252;18.848;2023-03-22T11:08:46;98373.92;;;16.58;52.30
62436;BME280;48480;50.252;18.848;2023-03-22T11:16:21;98362.88;;;16.95;51.58
62436;BME280;48480;50.252;18.848;2023-03-22T11:18:46;98364.25;;;17.02;51.30
62436;BME280;48480;50.252;18.848;2023-03-22T11:21:14;98360.95;;;17.13;50.69
62436;BME280;48480;50.252;18.848;2023-03-22T11:23:56;98359.52;;;17.34;50.43
62436;BME280;48480;50.252;18.848;2023-03-22T11:26:28;98350.27;;;17.62;50.17
62436;BME280;48480;50.252;18.848;2023-03-22T11:29:12;98349.08;;;17.90;49.78
62436;BME280;48480;50.252;18.848;2023-03-22T11:31:58;98346.75;;;18.13;48.76
62436;BME280;48480;50.252;18.848;2023-03-22T11:34:31;98346.60;;;18.25;47.80
62436;BME280;48480;50.252;18.848;2023-03-22T11:36:59;98341.23;;;18.30;46.94
62436;BME280;48480;50.252;18.848;2023-03-22T11:39:26;98338.25;;;18.28;46.65
62436;BME280;48480;50.252;18.848;2023-03-22T11:42:00;98337.60;;;18.19;46.46
62436;BME280;48480;50.252;18.848;2023-03-22T11:44:31;98336.95;;;18.11;46.79
62436;BME280;48480;50.252;18.848;2023-03-22T11:46:59;98331.37;;;18.05;46.89
62436;BME280;48480;50.252;18.848;2023-03-22T11:49:37;98325.52;;;18.02;47.41
62436;BME280;48480;50.252;18.848;2023-03-22T11:52:09;98324.48;;;18.05;47.69
62436;BME280;48480;50.252;18.848;2023-03-22T11:54:37;98324.06;;;18.10;47.49
62436;BME280;48480;50.252;18.848;2023-03-22T11:57:04;98323.84;;;18.16;47.85
62436;BME280;48480;50.252;18.848;2023-03-22T11:59:41;98323.73;;;18.21;47.79
62436;BME280;48480;50.252;18.848;2023-03-22T12:02:37;98317.88;;;18.24;48.02
62436;BME280;48480;50.252;18.848;2023-03-22T12:05:39;98317.99;;;18.27;47.40
62436;BME280;48480;50.252;18.848;2023-03-22T12:10:56;98311.81;;;18.22;47.05
62436;BME280;48480;50.252;18.848;2023-03-22T12:13:31;98307.79;;;18.17;47.32
62436;BME280;48480;50.252;18.848;2023-03-22T12:16:02;98300.77;;;18.14;47.40
62436;BME280;48480;50.252;18.848;2023-03-22T12:18:47;98300.83;;;18.18;47.53
62436;BME280;48480;50.252;18.848;2023-03-22T12:21:14;98300.22;;;18.20;47.43
62436;BME280;48480;50.252;18.848;2023-03-22T12:23:41;98300.11;;;18.23;47.60
62436;BME280;48480;50.252;18.848;2023-03-22T12:26:17;98294.88;;;18.26;47.40
62436;BME280;48480;50.252;18.848;2023-03-22T12:29:03;98293.88;;;18.27;47.04
62436;BME280;48480;50.252;18.848;2023-03-22T12:31:41;98289.87;;;18.22;47.19
62436;BME280;48480;50.252;18.848;2023-03-22T12:34:49;98286.10;;;18.19;47.46
62436;BME280;48480;50.252;18.848;2023-03-22T12:37:21;98283.44;;;18.10;47.35
62436;BME280;48480;50.252;18.848;2023-03-22T12:39:57;98281.81;;;18.04;47.91
62436;BME280;48480;50.252;18.848;2023-03-22T12:42:50;98275.11;;;18.02;48.11
62436;BME280;48480;50.252;18.848;2023-03-22T12:45:22;98275.65;;;18.08;47.22
62436;BME280;48480;50.252;18.848;2023-03-22T12:48:19;98272.17;;;18.09;47.67
62436;BME280;48480;50.252;18.848;2023-03-22T12:50:56;98269.13;;;18.13;47.44
62436;BME280;48480;50.252;18.848;2023-03-22T12:53:33;98261.79;;;18.17;47.30
62436;BME280;48480;50.252;18.848;2023-03-22T12:55:59;98261.75;;;18.19;47.41
62436;BME280;48480;50.252;18.848;2023-03-22T12:58:26;98255.01;;;18.20;47.26
62436;BME280;48480;50.252;18.848;2023-03-22T13:03:50;98257.65;;;18.21;46.27
62436;BME280;48480;50.252;18.848;2023-03-22T13:11:34;98251.52;;;18.20;46.03
62436;BME280;48480;50.252;18.848;2023-03-22T13:14:00;98253.67;;;18.25;46.27
62436;BME280;48480;50.252;18.848;2023-03-22T13:16:52;98251.86;;;18.29;46.13
62436;BME280;48480;50.252;18.848;2023-03-22T13:19:35;98250.44;;;18.35;45.90
62436;BME280;48480;50.252;18.848;2023-03-22T13:30:48;98238.20;;;18.37;45.41
62436;BME280;48480;50.252;18.848;2023-03-22T13:33:27;98236.66;;;18.38;44.89
62436;BME280;48480;50.252;18.848;2023-03-22T13:36:04;98238.58;;;18.35;44.68
62436;BME280;48480;50.252;18.848;2023-03-22T13:38:35;98230.61;;;18.30;44.52
62436;BME280;48480;50.252;18.848;2023-03-22T13:41:05;98232.34;;;18.25;44.60
62436;BME280;48480;50.252;18.848;2023-03-22T13:46:11;98228.92;;;18.24;44.62
62436;BME280;48480;50.252;18.848;2023-03-22T13:59:10;98220.42;;;18.36;44.34
62436;BME280;48480;50.252;18.848;2023-03-22T14:04:18;98217.97;;;18.31;43.71
62436;BME280;48480;50.252;18.848;2023-03-22T14:06:58;98214.32;;;18.31;43.60
62436;BME280;48480;50.252;18.848;2023-03-22T14:09:33;98210.98;;;18.31;43.77
62436;BME280;48480;50.252;18.848;2023-03-22T14:12:26;98210.21;;;18.23;43.26
62436;BME280;48480;50.252;18.848;2023-03-22T14:14:56;98209.99;;;18.10;43.37
62436;BME280;48480;50.252;18.848;2023-03-22T14:17:44;98204.02;;;18.03;43.72
62436;BME280;48480;50.252;18.848;2023-03-22T14:20:21;98206.48;;;18.01;43.87
62436;BME280;48480;50.252;18.848;2023-03-22T14:22:56;98204.12;;;17.98;44.23
62436;BME280;48480;50.252;18.848;2023-03-22T14:25:34;98201.91;;;17.94;44.14
62436;BME280;48480;50.252;18.848;2023-03-22T14:28:04;98200.74;;;17.87;44.32
62436;BME280;48480;50.252;18.848;2023-03-22T14:33:27;98200.72;;;17.74;44.36
62436;BME280;48480;50.252;18.848;2023-03-22T14:36:03;98194.77;;;17.63;44.75
62436;BME280;48480;50.252;18.848;2023-03-22T14:38:34;98185.84;;;17.55;44.93
62436;BME280;48480;50.252;18.848;2023-03-22T14:41:06;98193.45;;;17.51;45.05
62436;BME280;48480;50.252;18.848;2023-03-22T14:43:33;98191.66;;;17.45;45.47
62436;BME280;48480;50.252;18.848;2023-03-22T14:46:07;98190.01;;;17.43;45.70
62436;BME280;48480;50.252;18.848;2023-03-22T14:48:37;98190.64;;;17.38;45.75